Carriage Hill, Washington
Current Conditions -  °F | °C
As of 5:35 AM on Friday 24 Oct 2014 (Local Time) from KCLS Reporting Station
Moderate Fog Moderate Fog  
Wind Chill: 46°   Ceiling: NA
Heat Index: 46°   Visibility: 0.25mi
Dew Point: 46°   Wind: 0mph
Humidity: 100%   Direction: NA
Pressure: 30.01"   Gusts: NA
Location:  46.5485°N, 122.112°W
Report Text: KCLS 241235Z AUTO 00000KT 1/4SM FG 08/08 A3001 RMK AO2
Loading
Personal Weather Stations






























Interactive Weather Map
Tropical Storm Tracking
New forecast layout! Learn more

10-Day Weather Forecast

Advertisements
Track Severe Weather on mobile